CheckWX is a tool to help pilots better visualize weather data.  It is not intended as a substitute for an official pre-flight weather briefing.

09:20:21 UTC

3D2 METAR
Ephraim-Gibraltar Airport
Ephraim, Wisconsin, USA
Current

5 mins ago

K3D2 230915Z AUTO 36007KT 10SM BKN080 OVC085 17/13 A3005 RMK AO2 T01680131
Observed
Jul-23 @ 09:15 UTC
Wind
  • 360° at 7 KTS
Visibility
10 SM
Flight Rules
VFR
Cloud Levels
  • Broken at 8,000' AGL
  • Overcast at 8,500' AGL
Temperature
17°C / 63°F
Dewpoint
13°C / 55°F
Humidity
77%
Altimeter
30.05" Hg
Pressure
1017.62 hPa
Previous

25 mins ago

K3D2 230855Z AUTO 32006KT 10SM BKN080 BKN090 OVC110 17/13 A3005 RMK AO2 T01690131
Observed
Jul-23 @ 08:55 UTC
Wind
  • 320° at 6 KTS
Visibility
10 SM
Flight Rules
VFR
Cloud Levels
  • Broken at 8,000' AGL
  • Broken at 9,000' AGL
  • Overcast at 11,000' AGL
Temperature
17°C / 63°F
Dewpoint
13°C / 55°F
Humidity
77%
Altimeter
30.05" Hg
Pressure
1017.62 hPa
Previous

45 mins ago

K3D2 230835Z AUTO 30003KT 10SM SCT075 SCT095 17/13 A3004 RMK AO2 T01710132
Observed
Jul-23 @ 08:35 UTC
Wind
  • 300° at 3 KTS
Visibility
10 SM
Flight Rules
VFR
Cloud Levels
  • Scattered at 7,500' AGL
  • Scattered at 9,500' AGL
Temperature
17°C / 63°F
Dewpoint
13°C / 55°F
Humidity
77%
Altimeter
30.04" Hg
Pressure
1017.32 hPa